Search for airport 
image banner adimage banner ad
image banner ad

SBPA - Salgado Filho

Located in Porto Alegre, Brazil

ICAO - SBPA, IATA - POA

Data provided by Airmate  

General information

Coordinates: S29°59'38" W51°10'16"
Elevation is 13 feet MSL.
Magnetic variation is -17° East
View others Airports in Rio Grande do Sul

Operational data

Open for public use
Current time UTC:
Current local time:
Weather
METAR: SBPA 280900Z 32003KT 280V010 9999 FEW012 SCT025 BKN045 23/23 Q1007
TAF: TAF SBPA 280300Z 2806/2906 18006KT 9999 BKN015 FEW030TCU TN22/2808Z TX28/2817Z TEMPO 2808/2810 5000 SHRA BECMG 2812/2814 12010KT BKN030 BECMG 2816/2818 6000 TSRA BKN030 FEW040CB BECMG 2820/2822 10012KT 8000 SHRA SCT010 BKN020 FEW030TCU BECMG 2902/2904 11006KT 9999 NSW BKN012 RMK PDJ
View NOTAMs / SUP AIP / TFR affecting this airport [VIEW]
Communications frequencies: [VIEW]

Runways:

RWY identifierQFULength (ft)Width (ft)SurfaceLDA (ft)
1191°7480148ASP
29271°7480148
286496148UNK

Airport contact information

Address: Porto Alegre Brazil

Other aviation service providers

Flight schools

Aerosul

Aerosul

Satellite view of SBPA